Terminal Aerodrome Forecast
Issued by NWS

Current Version | Previous Version | Text Only | Print | Product List | Glossary On
Versions: 1 2 3 4 5 6 7 8 9 10 11 12 13 14 15 16
363
FTUS45 KTFX 190106 AAA
TAFHLN
TAF AMD
KHLN 190106Z 1901/1924 28012KT 4SM FU BKN035 OVC045
     FM190600 27006KT 6SM FU SKC
     FM191800 30012G18KT P6SM SKC=

USA.gov is the U.S. government's official web portal to all federal, state and local government web resources and services.